03:42
Airports
History
Links
Donate
Help keep this website running!
PayPal
Bitcoin
This page is community maintained. The information is intended for PC simulator navigation or reference.
Always use approved charts for navigation.
AZ44
Clementine Mine
Clementine Mine (AZ44)
Peoria, Arizona, United States (85383)
4
Lat/Lng:33° 46' 49.13" N / 112° 20' 38.59" W
33.780313 / -112.344052
Elevation:1530'ft / 466mMSL
ID / ICAO:AZ44
Runways:1
Longest:12-30
Gravel 724m / 2,376ft
Nearby Weather02:53 GMT 2017-10-17
Nearby weather at KDVT, Phoenix Deer Valley located 16.3 nautical miles from AZ44
Altimeter: 30.00
Visibility: 10.0 statute miles
Wind: 5 knots (from 360°)
Temp: 29°c / 84°f
Humidity: 17.6%

METAR: KDVT 170253Z 36005KT 10SM CLR 29/02 A3000 RMK AO2 SLP137 T02890017 53004 $

(Powered by phpweather)
Nearby VORs <50NM
Nearby NDBs
Runway 12 / 30
Dimensions:724.2 x 15.2m 2376' x 50'ft
Surface:Gravel
Runway 12 [A]Runway 30 [B]
Heading:132°TH 312°TH
Lat:
Lng:
33° 46' 57.21"N
112° 20' 49.01"W
33° 46' 41.05"N
112° 20' 28.16"W
User Notes and Comments
33° 46' 49.13" N / 112° 20' 38.59" W
Distance To
Airport ID:
Nearby Airports
4 El Mirage-Village Square 11.6 NM
2AZ3 S 177°
4 Mc Gills Ultralight Field 12.3 NM
2AZ7 ESE 122°
(R) Roesner Ranch 14.8 NM
AZ32 WNW 288°
(R) Castle Well 16.0 NM
0AZ5 WNW 291°
(C) Phoenix Deer Valley 16.3 NM
KDVT ( WX ) ESE 112°
(R) Luke Afb 17.1 NM
KLUF ( WX ) S 187°
(C) Glendale Muni 17.7 NM
KGEU S 170°
VFR Chart
Flight Planning at SkyVector.com